createdAt,value
2022-12-03T00:00:16.169Z,8.95
2022-12-03T00:03:03.507Z,8.57
2022-12-03T00:05:50.779Z,8.98
2022-12-03T00:08:37.957Z,7.82
2022-12-03T00:11:25.116Z,7.85
2022-12-03T00:14:12.395Z,9.05
2022-12-03T00:16:59.587Z,7.47
2022-12-03T00:19:46.713Z,8.60
2022-12-03T00:22:34.105Z,7.72
2022-12-03T00:25:21.325Z,9.48
2022-12-03T00:28:08.557Z,12.18
2022-12-03T00:30:55.969Z,12.30
2022-12-03T00:33:44.167Z,7.95
2022-12-03T00:36:31.326Z,8.15
2022-12-03T00:39:18.526Z,9.35
2022-12-03T00:42:05.895Z,9.13
2022-12-03T00:44:53.702Z,8.23
2022-12-03T00:47:40.984Z,9.00
2022-12-03T00:50:28.243Z,7.50
2022-12-03T00:53:15.475Z,8.55
2022-12-03T00:56:02.744Z,9.02
2022-12-03T00:58:50.008Z,10.68
2022-12-03T01:01:37.449Z,10.00
2022-12-03T01:04:24.715Z,10.60
2022-12-03T01:07:11.896Z,8.45
2022-12-03T01:09:59.439Z,10.90
2022-12-03T01:12:46.643Z,8.38
2022-12-03T01:15:33.966Z,11.00
2022-12-03T01:18:21.180Z,9.73
2022-12-03T01:21:08.301Z,10.45
2022-12-03T01:23:55.750Z,11.63
2022-12-03T01:26:43.058Z,11.45
2022-12-03T01:29:30.246Z,9.95
2022-12-03T01:32:17.431Z,9.65
2022-12-03T01:35:05.330Z,11.63
2022-12-03T01:37:52.473Z,9.00
2022-12-03T01:40:39.809Z,9.82
2022-12-03T01:43:27.045Z,11.60
2022-12-03T01:46:18.940Z,10.60
2022-12-03T01:49:09.616Z,9.02
2022-12-03T01:51:57.891Z,11.02
2022-12-03T01:55:07.449Z,10.85
2022-12-03T01:57:58.366Z,9.70
2022-12-03T02:00:45.511Z,11.63
2022-12-03T02:03:32.802Z,11.07
2022-12-03T02:06:21.505Z,10.90
2022-12-03T02:09:11.200Z,11.15
2022-12-03T02:11:58.349Z,11.00
2022-12-03T02:14:46.065Z,11.60
2022-12-03T02:17:33.656Z,12.15
2022-12-03T02:20:20.976Z,13.85
2022-12-03T02:23:18.113Z,14.95
2022-12-03T02:26:05.480Z,12.55
2022-12-03T02:28:52.648Z,12.73
2022-12-03T02:31:39.894Z,11.95
2022-12-03T02:34:35.624Z,11.68
2022-12-03T02:37:26.186Z,12.98
2022-12-03T02:40:21.462Z,10.88
2022-12-03T02:43:09.676Z,13.13
2022-12-03T02:46:00.036Z,12.40
2022-12-03T02:48:47.222Z,13.40
2022-12-03T02:51:35.408Z,12.27
2022-12-03T02:54:22.798Z,14.10
2022-12-03T02:57:10.015Z,12.13
2022-12-03T02:59:57.343Z,14.15
2022-12-03T03:02:46.714Z,14.13
2022-12-03T03:05:35.845Z,13.48
2022-12-03T03:08:25.083Z,14.55
2022-12-03T03:11:12.500Z,13.45
2022-12-03T03:14:02.328Z,12.02
2022-12-03T03:16:55.875Z,13.77
2022-12-03T03:19:43.084Z,14.23
2022-12-03T03:22:35.137Z,15.80
2022-12-03T03:25:24.641Z,14.38
2022-12-03T03:28:14.151Z,14.85
2022-12-03T03:31:02.898Z,16.23
2022-12-03T03:33:51.519Z,14.45
2022-12-03T03:36:39.519Z,12.27
2022-12-03T03:39:26.815Z,13.88
2022-12-03T03:42:14.092Z,17.67
2022-12-03T03:45:01.408Z,14.27
2022-12-03T03:47:48.641Z,14.85
2022-12-03T03:50:36.406Z,17.17
2022-12-03T03:53:24.363Z,18.05
2022-12-03T03:56:12.116Z,16.38
2022-12-03T03:58:59.631Z,16.02
2022-12-03T04:01:46.962Z,15.07
2022-12-03T04:04:36.817Z,16.67
2022-12-03T04:07:24.287Z,17.15
2022-12-03T04:10:31.216Z,16.42
2022-12-03T04:13:18.464Z,18.08
2022-12-03T04:16:05.847Z,17.73
2022-12-03T04:18:53.033Z,16.55
2022-12-03T04:21:58.775Z,18.58
2022-12-03T04:24:45.901Z,19.08
2022-12-03T04:27:51.596Z,17.88
2022-12-03T04:30:39.185Z,18.25
2022-12-03T04:33:44.716Z,20.17
2022-12-03T04:36:31.907Z,20.75
2022-12-03T04:39:20.888Z,16.73
2022-12-03T04:42:08.304Z,21.52
2022-12-03T04:44:55.747Z,16.70
2022-12-03T04:47:43.104Z,20.25
2022-12-03T04:50:30.253Z,19.67
2022-12-03T04:53:17.411Z,22.85
2022-12-03T04:56:04.726Z,18.33
2022-12-03T04:58:51.938Z,22.50
2022-12-03T05:01:39.258Z,22.40
2022-12-03T05:04:26.612Z,20.88
2022-12-03T05:07:13.774Z,21.10
2022-12-03T05:10:00.899Z,19.55
2022-12-03T05:12:48.015Z,22.80
2022-12-03T05:15:35.300Z,22.75
2022-12-03T05:18:22.461Z,26.10
2022-12-03T05:21:09.636Z,21.92
2022-12-03T05:23:56.830Z,24.88
2022-12-03T05:26:43.928Z,25.25
2022-12-03T05:29:31.237Z,23.90
2022-12-03T05:32:19.212Z,24.08
2022-12-03T05:35:06.602Z,26.95
2022-12-03T05:37:53.799Z,26.48
2022-12-03T05:40:40.928Z,27.17
2022-12-03T05:43:28.081Z,24.20
2022-12-03T05:46:15.332Z,26.90
2022-12-03T05:49:02.644Z,28.25
2022-12-03T05:51:52.538Z,27.90
2022-12-03T05:54:43.879Z,24.08
2022-12-03T05:57:31.062Z,27.70
2022-12-03T06:00:19.841Z,26.83
2022-12-03T06:03:07.715Z,29.27
2022-12-03T06:05:54.975Z,29.58
2022-12-03T06:08:42.038Z,28.65
2022-12-03T06:11:30.160Z,25.67
2022-12-03T06:14:17.270Z,25.77
2022-12-03T06:17:05.000Z,25.13
2022-12-03T06:19:52.597Z,27.75
2022-12-03T06:22:39.988Z,29.52
2022-12-03T06:25:27.155Z,26.60
2022-12-03T06:28:14.328Z,31.27
2022-12-03T06:31:01.580Z,29.15
2022-12-03T06:33:48.768Z,30.20
2022-12-03T06:36:36.014Z,30.25
2022-12-03T06:39:23.493Z,35.10
2022-12-03T06:42:10.649Z,29.77
2022-12-03T06:44:57.881Z,28.15
2022-12-03T06:47:45.180Z,29.95
2022-12-03T06:50:32.484Z,27.27
2022-12-03T06:53:19.634Z,28.85
2022-12-03T06:56:07.048Z,31.00
2022-12-03T06:58:54.559Z,26.95
2022-12-03T07:01:41.934Z,31.95
2022-12-03T07:04:29.190Z,28.33
2022-12-03T07:07:16.404Z,25.98
2022-12-03T07:10:04.551Z,29.40
2022-12-03T07:12:51.730Z,33.60
2022-12-03T07:15:38.886Z,35.00
2022-12-03T07:18:26.040Z,32.25
2022-12-03T07:21:13.240Z,32.28
2022-12-03T07:24:00.517Z,35.33
2022-12-03T07:26:47.791Z,28.30
2022-12-03T07:29:35.146Z,31.08
2022-12-03T07:32:22.314Z,33.05
2022-12-03T07:35:09.876Z,31.52
2022-12-03T07:37:57.061Z,33.92
2022-12-03T07:40:44.269Z,31.67
2022-12-03T07:43:31.499Z,32.25
2022-12-03T07:46:18.711Z,33.92
2022-12-03T07:49:05.925Z,33.13
2022-12-03T07:51:56.998Z,28.83
2022-12-03T07:54:44.405Z,30.90
2022-12-03T07:57:31.673Z,31.83
2022-12-03T08:00:20.001Z,34.50
2022-12-03T08:03:07.145Z,29.92
2022-12-03T08:05:54.321Z,32.92
2022-12-03T08:08:41.618Z,29.02
2022-12-03T08:11:29.602Z,27.90
2022-12-03T08:14:19.196Z,27.02
2022-12-03T08:17:13.346Z,25.40
2022-12-03T08:20:00.668Z,24.95
2022-12-03T08:22:50.536Z,28.27
2022-12-03T08:25:37.794Z,28.55
2022-12-03T08:28:26.709Z,27.48
2022-12-03T08:31:19.974Z,27.60
2022-12-03T08:34:16.934Z,32.92
2022-12-03T08:37:17.296Z,33.10
2022-12-03T08:40:33.280Z,25.65
2022-12-03T08:43:24.163Z,27.65
2022-12-03T08:46:18.899Z,27.05
2022-12-03T08:49:06.210Z,29.08
2022-12-03T08:52:01.236Z,27.15
2022-12-03T08:54:56.362Z,26.42
2022-12-03T08:57:43.828Z,27.88
2022-12-03T09:00:31.255Z,26.52
2022-12-03T09:03:19.803Z,28.02
2022-12-03T09:06:07.426Z,29.17
2022-12-03T09:08:54.615Z,30.27
2022-12-03T09:11:43.391Z,26.50
2022-12-03T09:14:30.659Z,32.30
2022-12-03T09:17:17.779Z,31.58
2022-12-03T09:20:06.183Z,27.67
2022-12-03T09:22:53.429Z,28.05
2022-12-03T09:25:40.672Z,29.60
2022-12-03T09:28:28.290Z,25.90
2022-12-03T09:31:16.492Z,27.83
2022-12-03T09:34:05.303Z,27.67
2022-12-03T09:36:52.453Z,22.48
2022-12-03T09:39:39.596Z,25.70
2022-12-03T09:42:29.499Z,27.40
2022-12-03T09:45:17.124Z,27.60
2022-12-03T09:48:04.533Z,27.50
2022-12-03T09:50:52.290Z,30.45
2022-12-03T09:53:41.431Z,29.15
2022-12-03T09:56:29.095Z,28.33
2022-12-03T09:59:16.863Z,28.48
2022-12-03T10:02:11.121Z,25.63
2022-12-03T10:04:59.076Z,27.30
2022-12-03T10:07:49.842Z,28.73
2022-12-03T10:10:39.005Z,28.58
2022-12-03T10:13:30.122Z,26.88
2022-12-03T10:16:20.669Z,26.88
2022-12-03T10:19:18.166Z,24.92
2022-12-03T10:22:05.536Z,32.97
2022-12-03T10:25:14.077Z,28.05
2022-12-03T10:28:05.873Z,27.27
2022-12-03T10:30:56.898Z,27.20
2022-12-03T10:33:48.177Z,24.40
2022-12-03T10:36:35.874Z,27.75
2022-12-03T10:39:23.005Z,36.80
2022-12-03T10:42:16.479Z,30.98
2022-12-03T10:45:23.056Z,29.52
2022-12-03T10:48:19.697Z,26.75
2022-12-03T10:51:16.320Z,24.80
2022-12-03T10:54:03.904Z,23.80
2022-12-03T10:56:53.496Z,24.58
2022-12-03T10:59:42.163Z,26.10
2022-12-03T11:02:29.235Z,23.10
2022-12-03T11:05:20.989Z,24.02
2022-12-03T11:08:22.850Z,25.42
2022-12-03T11:11:23.774Z,24.38
2022-12-03T11:14:11.875Z,31.05
2022-12-03T11:16:59.015Z,26.85
2022-12-03T11:19:48.081Z,30.48
2022-12-03T11:22:43.673Z,27.98
2022-12-03T11:25:44.604Z,27.13
2022-12-03T11:28:34.021Z,27.75
2022-12-03T11:31:40.295Z,28.42
2022-12-03T11:34:31.551Z,25.15
2022-12-03T11:37:20.337Z,33.60
2022-12-03T11:40:16.642Z,29.70
2022-12-03T11:43:05.452Z,29.00
2022-12-03T11:45:52.808Z,28.63
2022-12-03T11:48:45.609Z,26.35
2022-12-03T11:51:32.791Z,25.02
2022-12-03T11:54:23.066Z,28.92
2022-12-03T11:57:30.923Z,28.77
2022-12-03T12:00:23.640Z,25.58
2022-12-03T12:03:22.675Z,26.40
2022-12-03T12:06:18.885Z,33.67
2022-12-03T12:09:05.949Z,29.20
2022-12-03T12:11:52.992Z,29.60
2022-12-03T12:14:40.036Z,27.27
2022-12-03T12:17:35.220Z,29.77
2022-12-03T12:20:27.403Z,26.58
2022-12-03T12:23:25.826Z,26.17
2022-12-03T12:26:13.107Z,25.05
2022-12-03T12:29:00.152Z,25.38
2022-12-03T12:31:53.679Z,27.02
2022-12-03T12:34:46.681Z,26.85
2022-12-03T12:37:38.116Z,32.85
2022-12-03T12:40:28.857Z,27.02
2022-12-03T12:43:26.098Z,26.58
2022-12-03T12:46:46.760Z,34.85
2022-12-03T12:49:26.854Z,27.27
2022-12-03T12:52:14.518Z,26.05
2022-12-03T12:55:04.901Z,23.58
2022-12-03T12:57:52.545Z,26.42
2022-12-03T13:00:39.950Z,26.50
2022-12-03T13:03:31.871Z,26.55
2022-12-03T13:06:25.380Z,25.08
2022-12-03T13:09:18.207Z,25.98
2022-12-03T13:12:11.100Z,24.25
2022-12-03T13:15:00.817Z,22.55
2022-12-03T13:17:47.865Z,27.35
2022-12-03T13:20:36.480Z,26.15
2022-12-03T13:23:31.671Z,28.80
2022-12-03T13:26:36.114Z,25.73
2022-12-03T13:29:27.309Z,27.38
2022-12-03T13:32:18.737Z,26.63
2022-12-03T13:35:13.060Z,26.95
2022-12-03T13:38:00.154Z,26.80
2022-12-03T13:40:57.219Z,26.48
2022-12-03T13:43:46.253Z,27.08
2022-12-03T13:46:35.695Z,26.65
2022-12-03T13:49:23.990Z,29.85
2022-12-03T13:52:18.676Z,26.67
2022-12-03T13:55:10.332Z,25.20
2022-12-03T13:57:57.780Z,23.67
2022-12-03T14:00:45.197Z,27.23
2022-12-03T14:03:32.265Z,28.33
2022-12-03T14:06:19.312Z,24.42
2022-12-03T14:09:06.356Z,29.65
2022-12-03T14:12:12.100Z,22.50
2022-12-03T14:15:00.089Z,28.02
2022-12-03T14:17:50.221Z,26.15
2022-12-03T14:20:37.255Z,33.90
2022-12-03T14:23:24.337Z,29.33
2022-12-03T14:26:11.395Z,31.23
2022-12-03T14:28:58.533Z,25.02
2022-12-03T14:31:45.660Z,26.05
2022-12-03T14:34:32.868Z,27.63
2022-12-03T14:37:19.951Z,26.67
2022-12-03T14:40:08.902Z,28.20
2022-12-03T14:42:56.007Z,26.90
2022-12-03T14:45:45.239Z,28.80
2022-12-03T14:48:32.321Z,25.33
2022-12-03T14:51:21.353Z,30.15
2022-12-03T14:54:08.556Z,28.58
2022-12-03T14:56:55.707Z,26.80
2022-12-03T14:59:43.681Z,29.58
2022-12-03T15:02:30.849Z,28.33
2022-12-03T15:05:22.117Z,26.42
2022-12-03T15:08:14.106Z,26.85
2022-12-03T15:11:01.218Z,28.33
2022-12-03T15:13:48.458Z,32.03
2022-12-03T15:16:36.077Z,28.85
2022-12-03T15:19:23.139Z,27.55
2022-12-03T15:22:10.178Z,30.95
2022-12-03T15:24:57.312Z,28.88
2022-12-03T15:27:44.323Z,33.40
2022-12-03T15:30:32.120Z,29.75
2022-12-03T15:33:19.268Z,33.40
2022-12-03T15:36:06.692Z,34.15
2022-12-03T15:38:53.914Z,29.80
2022-12-03T15:41:41.107Z,31.73
2022-12-03T15:44:28.064Z,34.72
2022-12-03T15:47:15.079Z,32.45
2022-12-03T15:50:02.153Z,33.05
2022-12-03T15:52:49.184Z,33.45
2022-12-03T15:55:36.162Z,31.60
2022-12-03T15:58:23.132Z,34.22
2022-12-03T16:01:13.244Z,33.10
2022-12-03T16:04:00.302Z,31.27
2022-12-03T16:06:47.337Z,31.08
2022-12-03T16:09:34.336Z,33.67
2022-12-03T16:12:21.453Z,32.08
2022-12-03T16:15:08.823Z,31.73
2022-12-03T16:17:55.873Z,32.97
2022-12-03T16:20:42.977Z,33.42
2022-12-03T16:23:29.971Z,32.08
2022-12-03T16:26:17.035Z,32.97
2022-12-03T16:29:04.075Z,36.13
2022-12-03T16:31:52.465Z,36.90
2022-12-03T16:34:39.487Z,38.70
2022-12-03T16:37:26.503Z,33.63
2022-12-03T16:40:13.630Z,33.00
2022-12-03T16:43:00.730Z,36.83
2022-12-03T16:46:01.766Z,34.15
